sensor_id;sensor_type;location;lat;lon;timestamp;P1;durP1;ratioP1;P2;durP2;ratioP2
47529;SDS011;33272;51.922;7.730;2023-05-10T00:02:26;6.30;;;5.50;;
47529;SDS011;33272;51.922;7.730;2023-05-10T00:04:53;6.17;;;4.93;;
47529;SDS011;33272;51.922;7.730;2023-05-10T00:07:19;5.70;;;5.10;;
47529;SDS011;33272;51.922;7.730;2023-05-10T00:09:46;6.93;;;5.03;;
47529;SDS011;33272;51.922;7.730;2023-05-10T00:12:13;7.00;;;5.57;;
47529;SDS011;33272;51.922;7.730;2023-05-10T00:14:41;7.90;;;5.30;;
47529;SDS011;33272;51.922;7.730;2023-05-10T00:17:08;7.13;;;5.53;;
47529;SDS011;33272;51.922;7.730;2023-05-10T00:19:36;6.57;;;5.77;;
47529;SDS011;33272;51.922;7.730;2023-05-10T00:22:03;7.17;;;5.50;;
47529;SDS011;33272;51.922;7.730;2023-05-10T00:24:30;6.63;;;5.17;;
47529;SDS011;33272;51.922;7.730;2023-05-10T00:26:57;6.97;;;5.33;;
47529;SDS011;33272;51.922;7.730;2023-05-10T00:29:25;6.77;;;5.23;;
47529;SDS011;33272;51.922;7.730;2023-05-10T00:31:53;6.37;;;5.57;;
47529;SDS011;33272;51.922;7.730;2023-05-10T00:34:21;6.93;;;6.20;;
47529;SDS011;33272;51.922;7.730;2023-05-10T00:36:49;7.60;;;5.40;;
47529;SDS011;33272;51.922;7.730;2023-05-10T00:39:16;7.03;;;5.37;;
47529;SDS011;33272;51.922;7.730;2023-05-10T00:41:43;6.57;;;5.70;;
47529;SDS011;33272;51.922;7.730;2023-05-10T00:44:10;6.33;;;5.73;;
47529;SDS011;33272;51.922;7.730;2023-05-10T00:46:37;5.57;;;5.00;;
47529;SDS011;33272;51.922;7.730;2023-05-10T00:49:05;5.73;;;5.13;;
47529;SDS011;33272;51.922;7.730;2023-05-10T00:51:32;5.60;;;5.10;;
47529;SDS011;33272;51.922;7.730;2023-05-10T00:54:01;6.67;;;5.10;;
47529;SDS011;33272;51.922;7.730;2023-05-10T00:56:30;6.33;;;5.10;;
47529;SDS011;33272;51.922;7.730;2023-05-10T00:58:57;5.03;;;4.53;;
47529;SDS011;33272;51.922;7.730;2023-05-10T01:01:24;5.10;;;4.33;;
47529;SDS011;33272;51.922;7.730;2023-05-10T01:03:52;4.13;;;3.73;;
47529;SDS011;33272;51.922;7.730;2023-05-10T01:06:20;5.30;;;4.80;;
47529;SDS011;33272;51.922;7.730;2023-05-10T01:08:47;4.60;;;3.93;;
47529;SDS011;33272;51.922;7.730;2023-05-10T01:11:15;5.27;;;4.40;;
47529;SDS011;33272;51.922;7.730;2023-05-10T01:13:43;4.47;;;4.03;;
47529;SDS011;33272;51.922;7.730;2023-05-10T01:16:16;4.67;;;4.07;;
47529;SDS011;33272;51.922;7.730;2023-05-10T01:18:43;4.27;;;3.80;;
47529;SDS011;33272;51.922;7.730;2023-05-10T01:21:14;4.17;;;3.77;;
47529;SDS011;33272;51.922;7.730;2023-05-10T01:30:42;4.23;;;3.83;;
47529;SDS011;33272;51.922;7.730;2023-05-10T01:33:34;4.67;;;3.97;;
47529;SDS011;33272;51.922;7.730;2023-05-10T01:36:08;4.50;;;4.10;;
47529;SDS011;33272;51.922;7.730;2023-05-10T01:38:51;4.20;;;3.80;;
47529;SDS011;33272;51.922;7.730;2023-05-10T01:41:27;4.97;;;3.60;;
47529;SDS011;33272;51.922;7.730;2023-05-10T01:44:04;4.53;;;3.40;;
47529;SDS011;33272;51.922;7.730;2023-05-10T01:46:42;4.90;;;2.80;;
47529;SDS011;33272;51.922;7.730;2023-05-10T01:49:11;3.40;;;3.10;;
47529;SDS011;33272;51.922;7.730;2023-05-10T01:51:48;3.13;;;2.83;;
47529;SDS011;33272;51.922;7.730;2023-05-10T01:54:21;2.53;;;2.23;;
47529;SDS011;33272;51.922;7.730;2023-05-10T01:56:55;2.47;;;2.27;;
47529;SDS011;33272;51.922;7.730;2023-05-10T01:59:29;2.20;;;2.00;;
47529;SDS011;33272;51.922;7.730;2023-05-10T02:02:04;2.07;;;1.87;;
47529;SDS011;33272;51.922;7.730;2023-05-10T02:04:34;1.70;;;1.60;;
47529;SDS011;33272;51.922;7.730;2023-05-10T02:07:03;1.53;;;1.43;;
47529;SDS011;33272;51.922;7.730;2023-05-10T02:09:31;1.63;;;1.50;;
47529;SDS011;33272;51.922;7.730;2023-05-10T02:11:59;1.27;;;1.17;;
47529;SDS011;33272;51.922;7.730;2023-05-10T02:14:30;1.37;;;1.13;;
47529;SDS011;33272;51.922;7.730;2023-05-10T02:17:02;1.60;;;0.90;;
47529;SDS011;33272;51.922;7.730;2023-05-10T02:19:33;0.67;;;0.67;;
47529;SDS011;33272;51.922;7.730;2023-05-10T02:22:03;0.60;;;0.60;;
47529;SDS011;33272;51.922;7.730;2023-05-10T02:24:32;1.10;;;1.00;;
47529;SDS011;33272;51.922;7.730;2023-05-10T02:26:59;1.77;;;0.90;;
47529;SDS011;33272;51.922;7.730;2023-05-10T02:29:28;1.70;;;1.17;;
47529;SDS011;33272;51.922;7.730;2023-05-10T02:31:57;1.93;;;1.30;;
47529;SDS011;33272;51.922;7.730;2023-05-10T02:34:26;1.50;;;1.10;;
47529;SDS011;33272;51.922;7.730;2023-05-10T02:36:55;1.33;;;1.00;;
47529;SDS011;33272;51.922;7.730;2023-05-10T02:39:23;1.57;;;1.03;;
47529;SDS011;33272;51.922;7.730;2023-05-10T02:41:53;2.53;;;1.30;;
47529;SDS011;33272;51.922;7.730;2023-05-10T02:44:21;1.70;;;1.50;;
47529;SDS011;33272;51.922;7.730;2023-05-10T02:46:49;1.83;;;1.50;;
47529;SDS011;33272;51.922;7.730;2023-05-10T02:49:16;1.50;;;1.40;;
47529;SDS011;33272;51.922;7.730;2023-05-10T02:51:46;3.10;;;1.60;;
47529;SDS011;33272;51.922;7.730;2023-05-10T02:54:20;3.10;;;1.87;;
47529;SDS011;33272;51.922;7.730;2023-05-10T02:56:53;2.30;;;1.83;;
47529;SDS011;33272;51.922;7.730;2023-05-10T02:59:25;3.03;;;1.83;;
47529;SDS011;33272;51.922;7.730;2023-05-10T03:01:52;1.90;;;1.50;;
47529;SDS011;33272;51.922;7.730;2023-05-10T03:04:20;2.80;;;1.60;;
47529;SDS011;33272;51.922;7.730;2023-05-10T03:06:47;2.00;;;1.80;;
47529;SDS011;33272;51.922;7.730;2023-05-10T03:09:14;2.30;;;2.10;;
47529;SDS011;33272;51.922;7.730;2023-05-10T03:11:47;2.33;;;2.13;;
47529;SDS011;33272;51.922;7.730;2023-05-10T03:14:24;3.13;;;2.37;;
47529;SDS011;33272;51.922;7.730;2023-05-10T03:17:10;2.30;;;2.10;;
47529;SDS011;33272;51.922;7.730;2023-05-10T03:19:51;2.97;;;2.30;;
47529;SDS011;33272;51.922;7.730;2023-05-10T03:22:24;2.20;;;2.00;;
47529;SDS011;33272;51.922;7.730;2023-05-10T03:24:56;2.60;;;2.13;;
47529;SDS011;33272;51.922;7.730;2023-05-10T03:27:28;2.23;;;2.03;;
47529;SDS011;33272;51.922;7.730;2023-05-10T03:29:56;2.57;;;1.90;;
47529;SDS011;33272;51.922;7.730;2023-05-10T03:32:24;1.83;;;1.73;;
47529;SDS011;33272;51.922;7.730;2023-05-10T03:34:52;1.77;;;1.67;;
47529;SDS011;33272;51.922;7.730;2023-05-10T03:37:19;2.53;;;1.70;;
47529;SDS011;33272;51.922;7.730;2023-05-10T03:39:46;3.93;;;1.90;;
47529;SDS011;33272;51.922;7.730;2023-05-10T03:42:13;1.97;;;1.77;;
47529;SDS011;33272;51.922;7.730;2023-05-10T03:44:41;1.90;;;1.80;;
47529;SDS011;33272;51.922;7.730;2023-05-10T03:47:08;2.80;;;2.03;;
47529;SDS011;33272;51.922;7.730;2023-05-10T03:49:35;3.27;;;1.97;;
47529;SDS011;33272;51.922;7.730;2023-05-10T03:52:02;2.80;;;2.07;;
47529;SDS011;33272;51.922;7.730;2023-05-10T03:54:30;2.27;;;1.60;;
47529;SDS011;33272;51.922;7.730;2023-05-10T03:56:57;1.90;;;1.77;;
47529;SDS011;33272;51.922;7.730;2023-05-10T03:59:25;2.17;;;1.97;;
47529;SDS011;33272;51.922;7.730;2023-05-10T04:01:53;2.73;;;2.50;;
47529;SDS011;33272;51.922;7.730;2023-05-10T04:04:20;3.67;;;2.27;;
47529;SDS011;33272;51.922;7.730;2023-05-10T04:06:48;2.00;;;1.87;;
47529;SDS011;33272;51.922;7.730;2023-05-10T04:09:15;2.43;;;2.10;;
47529;SDS011;33272;51.922;7.730;2023-05-10T04:11:42;3.10;;;2.40;;
47529;SDS011;33272;51.922;7.730;2023-05-10T04:14:09;2.83;;;2.30;;
47529;SDS011;33272;51.922;7.730;2023-05-10T04:16:36;2.87;;;2.37;;
47529;SDS011;33272;51.922;7.730;2023-05-10T04:19:05;2.73;;;2.47;;
47529;SDS011;33272;51.922;7.730;2023-05-10T04:21:31;4.03;;;2.47;;
47529;SDS011;33272;51.922;7.730;2023-05-10T04:23:58;3.43;;;2.53;;
47529;SDS011;33272;51.922;7.730;2023-05-10T04:26:25;2.70;;;2.50;;
47529;SDS011;33272;51.922;7.730;2023-05-10T04:28:52;3.30;;;2.63;;
47529;SDS011;33272;51.922;7.730;2023-05-10T04:31:19;3.10;;;2.80;;
47529;SDS011;33272;51.922;7.730;2023-05-10T04:33:47;3.83;;;3.53;;
47529;SDS011;33272;51.922;7.730;2023-05-10T04:36:16;3.43;;;3.13;;
47529;SDS011;33272;51.922;7.730;2023-05-10T04:38:43;3.63;;;3.10;;
47529;SDS011;33272;51.922;7.730;2023-05-10T04:41:10;3.43;;;3.13;;
47529;SDS011;33272;51.922;7.730;2023-05-10T04:43:37;3.77;;;3.37;;
47529;SDS011;33272;51.922;7.730;2023-05-10T04:46:06;3.80;;;3.33;;
47529;SDS011;33272;51.922;7.730;2023-05-10T04:48:33;4.13;;;3.57;;
47529;SDS011;33272;51.922;7.730;2023-05-10T04:51:00;3.63;;;3.27;;
47529;SDS011;33272;51.922;7.730;2023-05-10T04:53:30;5.07;;;3.70;;
47529;SDS011;33272;51.922;7.730;2023-05-10T04:55:57;6.30;;;3.93;;
47529;SDS011;33272;51.922;7.730;2023-05-10T04:58:24;4.57;;;4.13;;
47529;SDS011;33272;51.922;7.730;2023-05-10T05:00:51;3.90;;;3.40;;
47529;SDS011;33272;51.922;7.730;2023-05-10T05:03:18;4.33;;;3.90;;
47529;SDS011;33272;51.922;7.730;2023-05-10T05:05:45;5.00;;;4.23;;
47529;SDS011;33272;51.922;7.730;2023-05-10T05:08:12;5.17;;;3.83;;
47529;SDS011;33272;51.922;7.730;2023-05-10T05:10:40;4.63;;;3.93;;
47529;SDS011;33272;51.922;7.730;2023-05-10T05:13:07;5.97;;;4.47;;
47529;SDS011;33272;51.922;7.730;2023-05-10T05:15:34;5.30;;;4.33;;
47529;SDS011;33272;51.922;7.730;2023-05-10T05:18:01;6.90;;;4.53;;
47529;SDS011;33272;51.922;7.730;2023-05-10T05:20:28;7.37;;;4.93;;
47529;SDS011;33272;51.922;7.730;2023-05-10T05:22:58;5.70;;;4.90;;
47529;SDS011;33272;51.922;7.730;2023-05-10T05:25:25;5.73;;;4.87;;
47529;SDS011;33272;51.922;7.730;2023-05-10T05:27:53;6.67;;;5.67;;
47529;SDS011;33272;51.922;7.730;2023-05-10T05:30:20;7.27;;;5.20;;
47529;SDS011;33272;51.922;7.730;2023-05-10T05:32:47;7.00;;;6.20;;
47529;SDS011;33272;51.922;7.730;2023-05-10T05:35:14;8.23;;;6.43;;
47529;SDS011;33272;51.922;7.730;2023-05-10T05:37:41;8.53;;;6.50;;
47529;SDS011;33272;51.922;7.730;2023-05-10T05:40:11;8.43;;;6.63;;
47529;SDS011;33272;51.922;7.730;2023-05-10T05:42:39;9.20;;;6.97;;
47529;SDS011;33272;51.922;7.730;2023-05-10T05:45:10;10.33;;;7.67;;
47529;SDS011;33272;51.922;7.730;2023-05-10T05:47:38;10.40;;;7.43;;
47529;SDS011;33272;51.922;7.730;2023-05-10T05:50:06;9.13;;;7.23;;
47529;SDS011;33272;51.922;7.730;2023-05-10T05:52:34;10.50;;;7.60;;
47529;SDS011;33272;51.922;7.730;2023-05-10T05:55:01;13.20;;;8.40;;
47529;SDS011;33272;51.922;7.730;2023-05-10T05:57:28;11.50;;;8.30;;
47529;SDS011;33272;51.922;7.730;2023-05-10T05:59:55;12.27;;;8.67;;
47529;SDS011;33272;51.922;7.730;2023-05-10T06:02:24;12.63;;;8.77;;
47529;SDS011;33272;51.922;7.730;2023-05-10T06:04:51;11.67;;;9.00;;
47529;SDS011;33272;51.922;7.730;2023-05-10T06:07:18;12.77;;;9.37;;
47529;SDS011;33272;51.922;7.730;2023-05-10T06:09:45;14.03;;;8.83;;
47529;SDS011;33272;51.922;7.730;2023-05-10T06:12:12;12.37;;;9.60;;
47529;SDS011;33272;51.922;7.730;2023-05-10T06:14:39;14.50;;;9.70;;
47529;SDS011;33272;51.922;7.730;2023-05-10T06:17:06;15.87;;;10.13;;
47529;SDS011;33272;51.922;7.730;2023-05-10T06:19:34;17.80;;;10.40;;
47529;SDS011;33272;51.922;7.730;2023-05-10T06:22:01;19.17;;;12.27;;
47529;SDS011;33272;51.922;7.730;2023-05-10T06:24:29;16.50;;;10.30;;
47529;SDS011;33272;51.922;7.730;2023-05-10T06:26:56;18.03;;;11.77;;
47529;SDS011;33272;51.922;7.730;2023-05-10T06:29:25;16.33;;;11.27;;
47529;SDS011;33272;51.922;7.730;2023-05-10T06:31:52;17.50;;;11.30;;
47529;SDS011;33272;51.922;7.730;2023-05-10T06:34:19;15.30;;;10.60;;
47529;SDS011;33272;51.922;7.730;2023-05-10T06:36:47;17.93;;;11.30;;
47529;SDS011;33272;51.922;7.730;2023-05-10T06:39:14;16.63;;;11.33;;
47529;SDS011;33272;51.922;7.730;2023-05-10T06:41:41;17.43;;;12.87;;
47529;SDS011;33272;51.922;7.730;2023-05-10T06:44:08;17.10;;;12.03;;
47529;SDS011;33272;51.922;7.730;2023-05-10T06:46:35;15.93;;;10.43;;
47529;SDS011;33272;51.922;7.730;2023-05-10T06:49:02;16.47;;;11.20;;
47529;SDS011;33272;51.922;7.730;2023-05-10T06:51:29;15.73;;;11.17;;
47529;SDS011;33272;51.922;7.730;2023-05-10T06:53:59;15.60;;;11.47;;
47529;SDS011;33272;51.922;7.730;2023-05-10T06:56:26;14.13;;;10.23;;
47529;SDS011;33272;51.922;7.730;2023-05-10T06:58:53;16.47;;;11.20;;
47529;SDS011;33272;51.922;7.730;2023-05-10T07:01:20;16.17;;;11.80;;
47529;SDS011;33272;51.922;7.730;2023-05-10T07:03:47;14.33;;;11.20;;
47529;SDS011;33272;51.922;7.730;2023-05-10T07:06:14;16.60;;;11.80;;
47529;SDS011;33272;51.922;7.730;2023-05-10T07:08:41;16.93;;;11.37;;
47529;SDS011;33272;51.922;7.730;2023-05-10T07:11:10;17.93;;;12.77;;
47529;SDS011;33272;51.922;7.730;2023-05-10T07:13:37;17.80;;;12.53;;
47529;SDS011;33272;51.922;7.730;2023-05-10T07:16:06;18.00;;;12.60;;
47529;SDS011;33272;51.922;7.730;2023-05-10T07:18:33;22.10;;;14.90;;
47529;SDS011;33272;51.922;7.730;2023-05-10T07:21:00;22.17;;;15.67;;
47529;SDS011;33272;51.922;7.730;2023-05-10T07:23:28;20.87;;;15.57;;
47529;SDS011;33272;51.922;7.730;2023-05-10T07:25:57;24.03;;;16.73;;
47529;SDS011;33272;51.922;7.730;2023-05-10T07:28:26;25.97;;;18.57;;
47529;SDS011;33272;51.922;7.730;2023-05-10T07:30:53;21.70;;;16.20;;
47529;SDS011;33272;51.922;7.730;2023-05-10T07:33:20;24.90;;;17.87;;
47529;SDS011;33272;51.922;7.730;2023-05-10T07:35:47;31.33;;;20.20;;
47529;SDS011;33272;51.922;7.730;2023-05-10T07:38:16;29.83;;;20.53;;
47529;SDS011;33272;51.922;7.730;2023-05-10T07:40:43;29.77;;;20.37;;
47529;SDS011;33272;51.922;7.730;2023-05-10T07:43:10;27.67;;;19.30;;
47529;SDS011;33272;51.922;7.730;2023-05-10T07:45:38;28.43;;;19.73;;
47529;SDS011;33272;51.922;7.730;2023-05-10T07:48:05;28.43;;;19.93;;
47529;SDS011;33272;51.922;7.730;2023-05-10T07:50:32;27.83;;;18.40;;
47529;SDS011;33272;51.922;7.730;2023-05-10T07:52:59;26.57;;;18.60;;
47529;SDS011;33272;51.922;7.730;2023-05-10T07:55:26;24.60;;;17.77;;
47529;SDS011;33272;51.922;7.730;2023-05-10T07:57:53;23.40;;;17.50;;
47529;SDS011;33272;51.922;7.730;2023-05-10T08:00:21;25.97;;;18.03;;
47529;SDS011;33272;51.922;7.730;2023-05-10T08:02:49;27.30;;;18.50;;
47529;SDS011;33272;51.922;7.730;2023-05-10T08:05:16;24.97;;;17.77;;
47529;SDS011;33272;51.922;7.730;2023-05-10T08:07:43;24.33;;;17.80;;
47529;SDS011;33272;51.922;7.730;2023-05-10T08:10:10;23.10;;;16.93;;
47529;SDS011;33272;51.922;7.730;2023-05-10T08:12:37;26.20;;;17.67;;
47529;SDS011;33272;51.922;7.730;2023-05-10T08:15:05;27.23;;;18.07;;
47529;SDS011;33272;51.922;7.730;2023-05-10T08:17:34;25.43;;;16.30;;
47529;SDS011;33272;51.922;7.730;2023-05-10T08:20:02;24.57;;;17.33;;
47529;SDS011;33272;51.922;7.730;2023-05-10T08:22:30;21.23;;;15.53;;
47529;SDS011;33272;51.922;7.730;2023-05-10T08:24:57;21.53;;;14.90;;
47529;SDS011;33272;51.922;7.730;2023-05-10T08:27:24;22.27;;;15.00;;
47529;SDS011;33272;51.922;7.730;2023-05-10T08:29:51;22.17;;;15.60;;
47529;SDS011;33272;51.922;7.730;2023-05-10T08:32:18;20.37;;;14.23;;
47529;SDS011;33272;51.922;7.730;2023-05-10T08:34:46;22.73;;;15.90;;
47529;SDS011;33272;51.922;7.730;2023-05-10T08:37:14;22.20;;;15.10;;
47529;SDS011;33272;51.922;7.730;2023-05-10T08:39:41;20.77;;;15.13;;
47529;SDS011;33272;51.922;7.730;2023-05-10T08:42:08;21.33;;;14.70;;
47529;SDS011;33272;51.922;7.730;2023-05-10T08:44:36;20.87;;;15.37;;
47529;SDS011;33272;51.922;7.730;2023-05-10T08:47:04;24.30;;;15.40;;
47529;SDS011;33272;51.922;7.730;2023-05-10T08:49:32;20.23;;;14.60;;
47529;SDS011;33272;51.922;7.730;2023-05-10T08:52:01;20.57;;;15.10;;
47529;SDS011;33272;51.922;7.730;2023-05-10T08:54:32;22.53;;;13.83;;
47529;SDS011;33272;51.922;7.730;2023-05-10T08:57:00;19.90;;;15.20;;
47529;SDS011;33272;51.922;7.730;2023-05-10T08:59:27;20.73;;;14.90;;
47529;SDS011;33272;51.922;7.730;2023-05-10T09:01:55;21.53;;;15.07;;
47529;SDS011;33272;51.922;7.730;2023-05-10T09:04:24;19.97;;;14.57;;
47529;SDS011;33272;51.922;7.730;2023-05-10T09:06:51;21.47;;;15.73;;
47529;SDS011;33272;51.922;7.730;2023-05-10T09:09:19;22.07;;;14.30;;
47529;SDS011;33272;51.922;7.730;2023-05-10T09:11:48;22.03;;;15.50;;
47529;SDS011;33272;51.922;7.730;2023-05-10T09:14:15;22.97;;;16.77;;
47529;SDS011;33272;51.922;7.730;2023-05-10T09:16:43;21.50;;;15.47;;
47529;SDS011;33272;51.922;7.730;2023-05-10T09:19:10;18.63;;;13.50;;
47529;SDS011;33272;51.922;7.730;2023-05-10T09:21:37;16.00;;;12.63;;
47529;SDS011;33272;51.922;7.730;2023-05-10T09:24:05;17.00;;;13.07;;
47529;SDS011;33272;51.922;7.730;2023-05-10T09:26:33;16.67;;;13.23;;
47529;SDS011;33272;51.922;7.730;2023-05-10T09:29:02;19.33;;;13.00;;
47529;SDS011;33272;51.922;7.730;2023-05-10T09:31:44;17.90;;;11.67;;
47529;SDS011;33272;51.922;7.730;2023-05-10T09:34:16;18.43;;;12.70;;
47529;SDS011;33272;51.922;7.730;2023-05-10T09:36:51;16.20;;;12.73;;
47529;SDS011;33272;51.922;7.730;2023-05-10T09:39:19;21.43;;;13.27;;
47529;SDS011;33272;51.922;7.730;2023-05-10T09:41:47;18.03;;;12.23;;
47529;SDS011;33272;51.922;7.730;2023-05-10T09:44:17;18.23;;;11.37;;
47529;SDS011;33272;51.922;7.730;2023-05-10T09:46:48;16.27;;;11.50;;
47529;SDS011;33272;51.922;7.730;2023-05-10T09:49:17;19.50;;;12.20;;
47529;SDS011;33272;51.922;7.730;2023-05-10T09:51:44;17.47;;;12.43;;
47529;SDS011;33272;51.922;7.730;2023-05-10T09:54:12;16.03;;;11.93;;
47529;SDS011;33272;51.922;7.730;2023-05-10T09:56:43;19.83;;;13.07;;
47529;SDS011;33272;51.922;7.730;2023-05-10T09:59:11;16.70;;;12.90;;
47529;SDS011;33272;51.922;7.730;2023-05-10T10:01:40;16.83;;;12.07;;
47529;SDS011;33272;51.922;7.730;2023-05-10T10:04:12;18.60;;;14.10;;
47529;SDS011;33272;51.922;7.730;2023-05-10T10:06:40;18.90;;;12.67;;
47529;SDS011;33272;51.922;7.730;2023-05-10T10:09:07;15.70;;;12.07;;
47529;SDS011;33272;51.922;7.730;2023-05-10T10:11:36;14.93;;;11.70;;
47529;SDS011;33272;51.922;7.730;2023-05-10T10:14:04;16.50;;;12.07;;
47529;SDS011;33272;51.922;7.730;2023-05-10T10:16:32;13.97;;;10.57;;
47529;SDS011;33272;51.922;7.730;2023-05-10T10:19:00;16.80;;;11.23;;
47529;SDS011;33272;51.922;7.730;2023-05-10T10:21:27;14.60;;;9.97;;
47529;SDS011;33272;51.922;7.730;2023-05-10T10:23:55;14.47;;;10.13;;
47529;SDS011;33272;51.922;7.730;2023-05-10T10:26:22;15.07;;;10.93;;
47529;SDS011;33272;51.922;7.730;2023-05-10T10:28:51;14.47;;;11.07;;
47529;SDS011;33272;51.922;7.730;2023-05-10T10:31:39;14.00;;;11.50;;
47529;SDS011;33272;51.922;7.730;2023-05-10T10:37:04;14.90;;;11.47;;
47529;SDS011;33272;51.922;7.730;2023-05-10T10:39:31;15.70;;;11.80;;
47529;SDS011;33272;51.922;7.730;2023-05-10T10:42:01;15.20;;;10.80;;
47529;SDS011;33272;51.922;7.730;2023-05-10T10:44:38;12.73;;;10.73;;
47529;SDS011;33272;51.922;7.730;2023-05-10T10:47:07;14.47;;;11.20;;
47529;SDS011;33272;51.922;7.730;2023-05-10T10:50:03;13.50;;;10.23;;
47529;SDS011;33272;51.922;7.730;2023-05-10T10:52:33;13.93;;;9.70;;
47529;SDS011;33272;51.922;7.730;2023-05-10T10:55:03;12.97;;;10.23;;
47529;SDS011;33272;51.922;7.730;2023-05-10T10:57:33;12.57;;;10.27;;
47529;SDS011;33272;51.922;7.730;2023-05-10T11:00:21;13.73;;;9.90;;
47529;SDS011;33272;51.922;7.730;2023-05-10T11:02:52;12.37;;;9.73;;
47529;SDS011;33272;51.922;7.730;2023-05-10T11:05:33;13.97;;;10.00;;
47529;SDS011;33272;51.922;7.730;2023-05-10T11:08:06;12.73;;;10.03;;
47529;SDS011;33272;51.922;7.730;2023-05-10T11:10:36;12.93;;;9.70;;
47529;SDS011;33272;51.922;7.730;2023-05-10T11:13:04;15.07;;;9.97;;
47529;SDS011;33272;51.922;7.730;2023-05-10T11:15:33;11.83;;;9.33;;
47529;SDS011;33272;51.922;7.730;2023-05-10T11:18:16;11.00;;;8.80;;
47529;SDS011;33272;51.922;7.730;2023-05-10T11:20:46;12.67;;;10.23;;
47529;SDS011;33272;51.922;7.730;2023-05-10T11:23:17;14.37;;;9.60;;
47529;SDS011;33272;51.922;7.730;2023-05-10T11:25:46;14.23;;;9.60;;
47529;SDS011;33272;51.922;7.730;2023-05-10T11:28:16;13.97;;;9.97;;
47529;SDS011;33272;51.922;7.730;2023-05-10T11:30:44;13.20;;;9.63;;
47529;SDS011;33272;51.922;7.730;2023-05-10T11:33:14;14.07;;;9.07;;
47529;SDS011;33272;51.922;7.730;2023-05-10T11:35:43;12.03;;;10.23;;
47529;SDS011;33272;51.922;7.730;2023-05-10T11:38:11;13.47;;;10.40;;
47529;SDS011;33272;51.922;7.730;2023-05-10T11:40:40;14.77;;;10.60;;
47529;SDS011;33272;51.922;7.730;2023-05-10T11:43:08;13.73;;;10.47;;
47529;SDS011;33272;51.922;7.730;2023-05-10T11:45:36;12.77;;;9.37;;
47529;SDS011;33272;51.922;7.730;2023-05-10T11:48:03;13.10;;;10.23;;
47529;SDS011;33272;51.922;7.730;2023-05-10T11:50:30;13.23;;;10.23;;
47529;SDS011;33272;51.922;7.730;2023-05-10T11:52:58;13.33;;;10.37;;
47529;SDS011;33272;51.922;7.730;2023-05-10T11:55:26;13.33;;;10.80;;
47529;SDS011;33272;51.922;7.730;2023-05-10T11:57:55;14.13;;;10.60;;
47529;SDS011;33272;51.922;7.730;2023-05-10T12:00:26;13.43;;;11.07;;
47529;SDS011;33272;51.922;7.730;2023-05-10T12:02:54;12.17;;;9.50;;
47529;SDS011;33272;51.922;7.730;2023-05-10T12:05:21;13.20;;;9.43;;
47529;SDS011;33272;51.922;7.730;2023-05-10T12:07:48;12.50;;;10.73;;
47529;SDS011;33272;51.922;7.730;2023-05-10T12:10:15;14.43;;;10.67;;
47529;SDS011;33272;51.922;7.730;2023-05-10T12:12:44;13.00;;;10.53;;
47529;SDS011;33272;51.922;7.730;2023-05-10T12:15:16;13.40;;;11.23;;
47529;SDS011;33272;51.922;7.730;2023-05-10T12:17:45;16.33;;;12.37;;
47529;SDS011;33272;51.922;7.730;2023-05-10T12:20:13;13.73;;;10.80;;
47529;SDS011;33272;51.922;7.730;2023-05-10T12:22:46;14.47;;;11.47;;
47529;SDS011;33272;51.922;7.730;2023-05-10T12:25:16;16.07;;;11.40;;
47529;SDS011;33272;51.922;7.730;2023-05-10T12:27:52;15.37;;;12.23;;
47529;SDS011;33272;51.922;7.730;2023-05-10T12:30:22;17.23;;;13.10;;
47529;SDS011;33272;51.922;7.730;2023-05-10T12:32:50;15.77;;;11.10;;
47529;SDS011;33272;51.922;7.730;2023-05-10T12:35:17;15.53;;;11.27;;
47529;SDS011;33272;51.922;7.730;2023-05-10T12:37:46;14.53;;;11.57;;
47529;SDS011;33272;51.922;7.730;2023-05-10T12:40:14;13.63;;;10.67;;
47529;SDS011;33272;51.922;7.730;2023-05-10T12:42:41;13.43;;;10.20;;
47529;SDS011;33272;51.922;7.730;2023-05-10T12:45:11;14.20;;;11.00;;
47529;SDS011;33272;51.922;7.730;2023-05-10T12:47:38;13.27;;;9.93;;
47529;SDS011;33272;51.922;7.730;2023-05-10T12:50:05;13.17;;;10.57;;
47529;SDS011;33272;51.922;7.730;2023-05-10T12:52:36;14.60;;;10.73;;
47529;SDS011;33272;51.922;7.730;2023-05-10T12:55:04;12.87;;;10.43;;
47529;SDS011;33272;51.922;7.730;2023-05-10T12:57:31;14.03;;;9.70;;
47529;SDS011;33272;51.922;7.730;2023-05-10T13:00:07;13.13;;;10.33;;
47529;SDS011;33272;51.922;7.730;2023-05-10T13:02:36;11.10;;;9.27;;
47529;SDS011;33272;51.922;7.730;2023-05-10T13:05:04;12.50;;;9.60;;
47529;SDS011;33272;51.922;7.730;2023-05-10T13:07:32;11.60;;;9.63;;
47529;SDS011;33272;51.922;7.730;2023-05-10T13:09:59;12.47;;;9.30;;
47529;SDS011;33272;51.922;7.730;2023-05-10T13:12:26;17.40;;;9.90;;
47529;SDS011;33272;51.922;7.730;2023-05-10T13:14:54;11.43;;;9.23;;
47529;SDS011;33272;51.922;7.730;2023-05-10T13:17:21;13.30;;;9.67;;
47529;SDS011;33272;51.922;7.730;2023-05-10T13:19:50;14.10;;;9.03;;
47529;SDS011;33272;51.922;7.730;2023-05-10T13:22:17;13.77;;;9.47;;
47529;SDS011;33272;51.922;7.730;2023-05-10T13:24:44;8.83;;;7.10;;
47529;SDS011;33272;51.922;7.730;2023-05-10T13:27:11;10.13;;;7.83;;
47529;SDS011;33272;51.922;7.730;2023-05-10T13:29:38;11.93;;;8.80;;
47529;SDS011;33272;51.922;7.730;2023-05-10T13:32:05;10.40;;;8.03;;
47529;SDS011;33272;51.922;7.730;2023-05-10T13:34:32;12.07;;;8.87;;
47529;SDS011;33272;51.922;7.730;2023-05-10T13:37:04;11.10;;;7.87;;
47529;SDS011;33272;51.922;7.730;2023-05-10T13:39:31;9.40;;;6.97;;
47529;SDS011;33272;51.922;7.730;2023-05-10T13:41:59;7.90;;;6.30;;
47529;SDS011;33272;51.922;7.730;2023-05-10T13:44:26;9.97;;;6.80;;
47529;SDS011;33272;51.922;7.730;2023-05-10T13:46:53;7.47;;;5.10;;
47529;SDS011;33272;51.922;7.730;2023-05-10T13:49:20;6.90;;;5.17;;
47529;SDS011;33272;51.922;7.730;2023-05-10T13:51:48;8.80;;;6.50;;
47529;SDS011;33272;51.922;7.730;2023-05-10T13:54:17;10.50;;;8.23;;
47529;SDS011;33272;51.922;7.730;2023-05-10T13:56:44;10.67;;;7.33;;
47529;SDS011;33272;51.922;7.730;2023-05-10T13:59:13;10.87;;;8.03;;
47529;SDS011;33272;51.922;7.730;2023-05-10T14:01:40;11.60;;;8.57;;
47529;SDS011;33272;51.922;7.730;2023-05-10T14:04:07;12.23;;;8.43;;
47529;SDS011;33272;51.922;7.730;2023-05-10T14:06:35;11.27;;;7.93;;
47529;SDS011;33272;51.922;7.730;2023-05-10T14:09:02;14.27;;;8.93;;
47529;SDS011;33272;51.922;7.730;2023-05-10T14:11:31;10.53;;;8.30;;
47529;SDS011;33272;51.922;7.730;2023-05-10T14:13:58;12.67;;;9.87;;
47529;SDS011;33272;51.922;7.730;2023-05-10T14:16:25;12.37;;;9.60;;
47529;SDS011;33272;51.922;7.730;2023-05-10T14:18:52;13.10;;;10.70;;
47529;SDS011;33272;51.922;7.730;2023-05-10T14:21:19;13.43;;;10.70;;
47529;SDS011;33272;51.922;7.730;2023-05-10T14:23:46;15.07;;;11.47;;
47529;SDS011;33272;51.922;7.730;2023-05-10T14:26:13;14.90;;;10.53;;
47529;SDS011;33272;51.922;7.730;2023-05-10T14:28:41;16.87;;;12.00;;
47529;SDS011;33272;51.922;7.730;2023-05-10T14:31:08;13.30;;;11.20;;
47529;SDS011;33272;51.922;7.730;2023-05-10T14:33:36;14.33;;;10.67;;
47529;SDS011;33272;51.922;7.730;2023-05-10T14:36:03;14.57;;;11.00;;
47529;SDS011;33272;51.922;7.730;2023-05-10T14:38:31;14.23;;;11.30;;
47529;SDS011;33272;51.922;7.730;2023-05-10T14:40:59;14.63;;;11.53;;
47529;SDS011;33272;51.922;7.730;2023-05-10T14:43:26;14.40;;;10.97;;
47529;SDS011;33272;51.922;7.730;2023-05-10T14:45:56;15.33;;;11.40;;
47529;SDS011;33272;51.922;7.730;2023-05-10T14:48:25;14.77;;;11.23;;
47529;SDS011;33272;51.922;7.730;2023-05-10T14:50:52;18.03;;;11.20;;
47529;SDS011;33272;51.922;7.730;2023-05-10T14:53:20;14.67;;;11.20;;